Time;durP1;ratioP1;P1;durP2;ratioP2;P2;SDS_P1;SDS_P2;PMS_P1;PMS_P2;Temp;Humidity;BMP_temperature;BMP_pressure;BME280_temperature;BME280_humidity;BME280_pressure;Samples;Min_cycle;Max_cycle;Signal;HPM_P1;HPM_P2
2023/12/27 00:01:17;;;;;;;0.50;0.50;;;;;;;9.67;67.78;95144.66;5032272;28;20275;-67
2023/12/27 00:03:43;;;;;;;0.67;0.67;;;;;;;9.65;68.08;95146.66;5049904;28;20198;-67
2023/12/27 00:06:08;;;;;;;0.50;0.50;;;;;;;9.70;67.77;95145.03;5050843;28;20753;-68
2023/12/27 00:08:35;;;;;;;0.40;0.40;;;;;;;9.75;67.54;95147.91;5050038;28;20179;-67
2023/12/27 00:11:02;;;;;;;0.50;0.50;;;;;;;9.57;67.44;95125.81;5050152;28;20691;-67
2023/12/27 00:13:27;;;;;;;0.40;0.40;;;;;;;9.64;67.33;95145.03;5049176;28;20246;-69
2023/12/27 00:15:53;;;;;;;0.40;0.40;;;;;;;9.73;67.32;95162.25;5049616;28;20265;-68
2023/12/27 00:18:18;;;;;;;0.50;0.50;;;;;;;9.67;67.69;95161.22;5049844;28;20171;-68
2023/12/27 00:20:47;;;;;;;0.40;0.40;;;;;;;9.68;67.26;95159.41;5050687;28;20233;-67
2023/12/27 00:23:12;;;;;;;0.50;0.50;;;;;;;9.65;67.63;95175.56;5048459;28;20202;-68
2023/12/27 00:25:38;;;;;;;0.50;0.50;;;;;;;9.60;67.76;95176.13;5050484;28;20198;-67
2023/12/27 00:28:03;;;;;;;0.53;0.53;;;;;;;9.65;67.37;95184.25;5050247;28;20562;-67
2023/12/27 00:30:29;;;;;;;0.43;0.43;;;;;;;9.60;67.94;95185.88;5048778;28;20179;-67
2023/12/27 00:32:55;;;;;;;0.50;0.50;;;;;;;9.64;67.77;95192.34;5050922;28;20155;-68
2023/12/27 00:35:20;;;;;;;0.53;0.53;;;;;;;9.59;67.97;95182.44;5051043;28;20595;-67
2023/12/27 00:37:46;;;;;;;0.50;0.50;;;;;;;9.58;68.30;95191.31;5051219;28;20178;-67
2023/12/27 00:40:11;;;;;;;0.50;0.50;;;;;;;9.56;68.29;95189.88;5051183;28;20171;-67
2023/12/27 00:42:37;;;;;;;0.50;0.50;;;;;;;9.45;68.46;95194.69;5050612;28;20258;-67
2023/12/27 00:45:03;;;;;;;0.50;0.50;;;;;;;9.38;68.65;95188.59;5050982;28;20214;-67
2023/12/27 00:47:29;;;;;;;0.50;0.50;;;;;;;9.30;68.39;95194.00;5051366;28;20175;-67
2023/12/27 00:49:55;;;;;;;0.40;0.40;;;;;;;9.20;68.89;95201.44;5033179;28;20175;-68
2023/12/27 00:52:20;;;;;;;0.40;0.40;;;;;;;9.08;68.31;95206.41;5051318;28;20240;-68
2023/12/27 00:54:46;;;;;;;0.50;0.50;;;;;;;8.91;68.38;95197.19;5051109;28;20232;-67
2023/12/27 00:57:11;;;;;;;0.50;0.50;;;;;;;8.75;68.74;95212.44;5051113;28;20179;-68
2023/12/27 00:59:37;;;;;;;0.50;0.50;;;;;;;8.67;68.68;95214.19;5032945;28;20174;-68
2023/12/27 01:02:02;;;;;;;0.40;0.40;;;;;;;8.50;69.21;95223.34;5050904;28;20179;-68
2023/12/27 01:04:28;;;;;;;0.50;0.50;;;;;;;8.32;69.83;95215.91;5051032;28;20688;-68
2023/12/27 01:06:53;;;;;;;0.50;0.50;;;;;;;8.29;70.38;95229.38;5051047;28;20536;-67
2023/12/27 01:09:19;;;;;;;0.50;0.50;;;;;;;8.30;69.99;95236.22;5050051;28;20206;-67
2023/12/27 01:11:44;;;;;;;0.50;0.50;;;;;;;8.21;70.64;95232.13;5050737;28;20175;-68
2023/12/27 01:14:10;;;;;;;0.50;0.50;;;;;;;8.14;71.01;95233.03;5050945;28;20739;-68
2023/12/27 01:16:36;;;;;;;0.40;0.40;;;;;;;8.02;70.83;95213.56;5050867;28;20186;-67
2023/12/27 01:19:01;;;;;;;0.50;0.50;;;;;;;7.85;71.72;95216.44;5050967;28;20324;-68
2023/12/27 01:21:27;;;;;;;0.50;0.50;;;;;;;7.77;71.92;95219.16;5050830;28;20250;-67
2023/12/27 01:23:52;;;;;;;0.50;0.50;;;;;;;7.69;72.87;95237.59;5050738;28;20222;-67
2023/12/27 01:26:17;;;;;;;0.50;0.50;;;;;;;7.52;74.42;95220.47;5050857;28;20541;-67
2023/12/27 01:28:43;;;;;;;0.70;0.70;;;;;;;7.64;73.83;95226.84;5050815;28;20241;-67
2023/12/27 01:31:09;;;;;;;0.50;0.50;;;;;;;7.58;74.64;95230.19;5050776;28;20199;-67
2023/12/27 01:33:35;;;;;;;0.50;0.50;;;;;;;7.69;74.95;95224.50;5050559;28;20642;-67
2023/12/27 01:36:07;;;;;;;0.50;0.50;;;;;;;7.65;75.09;95206.69;5051075;28;20236;-67
2023/12/27 01:38:33;;;;;;;0.40;0.40;;;;;;;7.74;75.83;95227.38;5050492;28;20607;-67
2023/12/27 01:40:59;;;;;;;0.50;0.50;;;;;;;7.69;76.28;95207.97;5050292;28;20171;-67
2023/12/27 01:43:24;;;;;;;0.50;0.50;;;;;;;7.88;76.51;95226.50;5050385;28;20198;-67
2023/12/27 01:45:52;;;;;;;0.50;0.50;;;;;;;7.92;76.19;95230.41;5050601;28;20175;-67
2023/12/27 01:48:21;;;;;;;0.53;0.53;;;;;;;7.96;76.12;95238.69;5050354;28;20186;-67
2023/12/27 01:50:51;;;;;;;0.53;0.53;;;;;;;7.92;nan;95212.06;5050325;28;20175;-67
2023/12/27 01:53:17;;;;;;;0.50;0.50;;;;;;;8.12;75.56;95241.13;5050278;28;20618;-67
2023/12/27 01:55:44;;;;;;;0.40;0.40;;;;;;;8.22;76.07;95252.09;5050172;28;20247;-67
2023/12/27 01:58:12;;;;;;;0.50;0.50;;;;;;;8.18;75.67;95232.50;5050033;28;20171;-67
2023/12/27 02:00:41;;;;;;;0.40;0.40;;;;;;;8.53;75.32;95246.59;5049585;28;20418;-67
2023/12/27 02:03:07;;;;;;;1.00;0.57;;;;;;;8.57;74.51;95236.50;5049965;28;20635;-67
2023/12/27 02:05:34;;;;;;;1.90;1.80;;;;;;;8.64;75.01;95245.25;5050161;28;20170;-67
2023/12/27 02:08:00;;;;;;;0.40;0.40;;;;;;;8.66;74.84;95249.31;5049830;28;20190;-67
2023/12/27 02:10:27;;;;;;;0.50;0.50;;;;;;;8.67;74.73;95245.69;5049892;28;20183;-67
2023/12/27 02:12:53;;;;;;;2.97;2.77;;;;;;;8.65;75.12;95242.44;5050023;28;20174;-67
2023/12/27 02:15:19;;;;;;;0.40;0.40;;;;;;;8.63;75.25;95238.41;5049666;28;20553;-67
2023/12/27 02:17:45;;;;;;;0.50;0.50;;;;;;;8.85;75.34;95250.47;5050054;28;20209;-67
2023/12/27 02:20:11;;;;;;;1.73;1.63;;;;;;;9.05;74.96;95253.25;5049544;28;20186;-67
2023/12/27 02:22:39;;;;;;;2.03;1.93;;;;;;;9.26;74.55;95249.75;5049909;28;20545;-67
2023/12/27 02:25:05;;;;;;;0.40;0.40;;;;;;;9.40;73.75;95240.94;5049651;28;20205;-67
2023/12/27 02:27:31;;;;;;;0.90;0.90;;;;;;;9.49;73.69;95233.72;5049848;28;20175;-67
2023/12/27 02:29:56;;;;;;;0.50;0.50;;;;;;;9.58;73.17;95237.81;5049863;28;20167;-67
2023/12/27 02:32:23;;;;;;;0.50;0.50;;;;;;;9.51;73.29;95243.03;5049906;28;20214;-67
2023/12/27 02:34:49;;;;;;;0.50;0.50;;;;;;;9.49;73.91;95245.03;5050013;28;20167;-67
2023/12/27 02:37:14;;;;;;;0.40;0.40;;;;;;;9.50;73.97;95245.84;5049622;28;20194;-67
2023/12/27 02:39:40;;;;;;;0.40;0.40;;;;;;;9.62;73.37;95246.91;5049645;28;20171;-67
2023/12/27 02:42:05;;;;;;;0.50;0.50;;;;;;;9.62;73.23;95220.63;5049543;28;20642;-67
2023/12/27 02:44:31;;;;;;;0.40;0.40;;;;;;;9.70;73.33;95250.19;5049600;28;20555;-67
2023/12/27 02:46:56;;;;;;;0.50;0.50;;;;;;;9.71;73.38;95245.75;5049524;28;20175;-67
2023/12/27 02:49:21;;;;;;;2.43;2.33;;;;;;;9.68;73.39;95256.66;5031684;28;20514;-67
2023/12/27 02:51:48;;;;;;;0.97;0.97;;;;;;;9.89;72.84;95253.09;5049523;28;20266;-67
2023/12/27 02:54:13;;;;;;;0.50;0.50;;;;;;;9.78;72.92;95249.22;5032026;28;20362;-67
2023/12/27 02:56:38;;;;;;;0.40;0.40;;;;;;;9.85;72.64;95244.81;5049499;28;20675;-67
2023/12/27 02:59:04;;;;;;;0.40;0.40;;;;;;;9.74;72.57;95245.38;5049439;28;20175;-66
2023/12/27 03:01:30;;;;;;;0.50;0.50;;;;;;;9.70;72.87;95244.13;5049475;28;20171;-66
2023/12/27 03:03:55;;;;;;;0.40;0.40;;;;;;;9.73;73.16;95270.84;5049253;28;20558;-66
2023/12/27 03:06:21;;;;;;;0.40;0.40;;;;;;;9.59;73.25;95260.47;5049446;28;20175;-66
2023/12/27 03:08:46;;;;;;;0.50;0.50;;;;;;;9.61;73.31;95280.25;5049816;28;20650;-66
2023/12/27 03:11:12;;;;;;;0.40;0.40;;;;;;;9.63;73.07;95283.53;5049507;28;20187;-66
2023/12/27 03:13:37;;;;;;;0.40;0.40;;;;;;;9.63;73.35;95280.06;5049045;28;20163;-67
2023/12/27 03:16:06;;;;;;;0.70;0.70;;;;;;;9.53;73.47;95274.34;5049346;28;20288;-67
2023/12/27 03:18:33;;;;;;;0.40;0.40;;;;;;;9.60;73.20;95281.28;5049268;28;20556;-67
2023/12/27 03:20:59;;;;;;;0.40;0.40;;;;;;;9.54;73.36;95289.94;5048182;28;20182;-67
2023/12/27 03:23:24;;;;;;;0.40;0.40;;;;;;;9.50;73.24;95282.66;5049261;28;20211;-68
2023/12/27 03:25:50;;;;;;;0.40;0.40;;;;;;;9.53;73.27;95300.63;5031367;28;20265;-68
2023/12/27 03:28:16;;;;;;;0.50;0.50;;;;;;;9.46;73.85;95304.03;5049218;28;20571;-68
2023/12/27 03:30:41;;;;;;;0.40;0.40;;;;;;;9.38;73.68;95301.56;5049205;28;20229;-68
2023/12/27 03:33:07;;;;;;;0.40;0.40;;;;;;;9.33;74.54;95300.53;5033458;28;20179;-68
2023/12/27 03:35:32;;;;;;;0.40;0.40;;;;;;;9.36;74.10;95300.13;5053005;28;20179;-68
2023/12/27 03:37:58;;;;;;;0.40;0.40;;;;;;;9.23;74.32;95300.88;5052966;28;20266;-67
2023/12/27 03:40:23;;;;;;;0.43;0.43;;;;;;;9.20;74.50;95295.16;5052621;28;20198;-67
2023/12/27 03:42:49;;;;;;;2.43;2.33;;;;;;;9.28;74.45;95301.09;5052907;28;20171;-67
2023/12/27 03:45:17;;;;;;;0.40;0.40;;;;;;;9.25;74.75;95312.00;5052572;28;20689;-67
2023/12/27 03:47:43;;;;;;;0.40;0.40;;;;;;;9.20;74.84;95288.09;5052795;28;20167;-67
2023/12/27 03:50:09;;;;;;;0.60;0.60;;;;;;;9.30;74.67;95309.59;5052762;28;20177;-67
2023/12/27 03:52:34;;;;;;;0.40;0.40;;;;;;;9.30;74.72;95299.09;5052579;28;20254;-68
2023/12/27 03:55:00;;;;;;;1.17;1.13;;;;;;;9.11;75.51;95299.75;5052458;28;20171;-67
2023/12/27 03:57:25;;;;;;;0.30;0.30;;;;;;;9.20;75.36;95310.94;5052829;28;20177;-68
2023/12/27 03:59:51;;;;;;;5.97;1.20;;;;;;;9.20;74.97;95309.13;5052632;28;20257;-67
2023/12/27 04:02:16;;;;;;;0.40;0.40;;;;;;;9.13;74.89;95316.13;5052341;28;20171;-66
2023/12/27 04:04:41;;;;;;;0.40;0.40;;;;;;;9.04;75.15;95317.28;5034450;28;20195;-68
2023/12/27 04:07:07;;;;;;;0.40;0.40;;;;;;;9.01;75.21;95323.72;5052380;28;20634;-67
2023/12/27 04:09:32;;;;;;;0.40;0.40;;;;;;;8.96;75.21;95325.28;5052493;28;20676;-68
2023/12/27 04:11:58;;;;;;;0.63;0.63;;;;;;;8.77;76.73;95331.97;5052142;28;20183;-67
2023/12/27 04:14:24;;;;;;;0.40;0.40;;;;;;;8.83;76.12;95346.97;5051988;28;20219;-68
2023/12/27 04:16:50;;;;;;;0.70;0.70;;;;;;;8.73;76.31;95322.88;5052241;28;20177;-67
2023/12/27 04:19:15;;;;;;;0.40;0.40;;;;;;;8.77;76.48;95337.22;5052196;28;20175;-67
2023/12/27 04:21:42;;;;;;;0.40;0.40;;;;;;;8.85;76.29;95338.91;5049850;28;20258;-68
2023/12/27 04:24:09;;;;;;;0.40;0.40;;;;;;;8.85;76.99;95336.28;5050119;28;20206;-67
2023/12/27 04:26:40;;;;;;;0.50;0.50;;;;;;;8.99;77.23;95341.47;5049253;28;20183;-67
2023/12/27 04:29:07;;;;;;;0.50;0.50;;;;;;;9.07;77.02;95337.91;5050989;28;20187;-67
2023/12/27 04:31:33;;;;;;;0.40;0.40;;;;;;;9.11;77.38;95340.97;5051801;28;20175;-67
2023/12/27 04:33:58;;;;;;;0.40;0.40;;;;;;;8.99;77.21;95317.03;5051178;28;20175;-67
2023/12/27 04:36:24;;;;;;;0.70;0.70;;;;;;;9.06;76.95;95317.91;5050431;28;20211;-67
2023/12/27 04:38:49;;;;;;;0.47;0.47;;;;;;;9.31;76.92;95345.38;5050482;28;20174;-67
2023/12/27 04:41:15;;;;;;;0.70;0.70;;;;;;;9.49;76.17;95346.72;5050052;28;20179;-67
2023/12/27 04:43:40;;;;;;;0.40;0.40;;;;;;;9.48;76.27;95343.28;5028880;28;20198;-67
2023/12/27 04:46:08;;;;;;;0.40;0.40;;;;;;;9.53;75.81;95347.94;5050321;28;20729;-67
2023/12/27 04:48:34;;;;;;;0.40;0.40;;;;;;;9.53;76.24;95330.34;5050277;28;20221;-68
2023/12/27 04:50:59;;;;;;;1.93;1.77;;;;;;;9.64;75.57;95334.28;5051149;28;20268;-68
2023/12/27 04:53:25;;;;;;;0.53;0.53;;;;;;;9.70;75.51;95344.00;5051864;28;20171;-68
2023/12/27 04:55:50;;;;;;;0.80;0.80;;;;;;;9.70;75.48;95349.25;5051368;28;20186;-68
2023/12/27 04:58:16;;;;;;;0.40;0.40;;;;;;;9.65;75.27;95352.50;5051492;28;20167;-68
2023/12/27 05:00:41;;;;;;;0.63;0.63;;;;;;;9.58;75.69;95351.63;5051193;28;20250;-68
2023/12/27 05:03:07;;;;;;;0.40;0.40;;;;;;;9.54;75.96;95350.38;5051269;28;20583;-68
2023/12/27 05:05:33;;;;;;;0.40;0.40;;;;;;;9.50;76.45;95358.84;5051392;28;20611;-68
2023/12/27 05:07:58;;;;;;;0.63;0.63;;;;;;;9.52;75.97;95360.25;5050771;28;20186;-68
2023/12/27 05:10:24;;;;;;;0.60;0.60;;;;;;;9.55;76.00;95357.25;5051114;28;20201;-68
2023/12/27 05:12:49;;;;;;;0.57;0.57;;;;;;;9.55;76.29;95356.44;5047690;28;20241;-68
2023/12/27 05:15:15;;;;;;;0.50;0.50;;;;;;;9.57;76.19;95364.97;5050833;28;20222;-68
2023/12/27 05:17:40;;;;;;;0.67;0.67;;;;;;;9.61;76.00;95368.81;5050191;28;20181;-68
2023/12/27 05:20:06;;;;;;;0.93;0.93;;;;;;;9.59;76.43;95358.53;5050931;28;20652;-68
2023/12/27 05:22:34;;;;;;;0.60;0.60;;;;;;;9.62;76.30;95367.81;5050930;28;20167;-68
2023/12/27 05:25:02;;;;;;;0.50;0.50;;;;;;;9.53;76.69;95376.84;5050754;28;20582;-68
2023/12/27 05:27:28;;;;;;;0.60;0.60;;;;;;;9.47;76.76;95375.81;5050936;28;20290;-68
2023/12/27 05:29:54;;;;;;;2.70;2.50;;;;;;;9.44;76.77;95379.63;5050842;28;20658;-68
2023/12/27 05:32:20;;;;;;;0.50;0.50;;;;;;;9.39;76.87;95381.22;5050776;28;20250;-68
2023/12/27 05:34:46;;;;;;;0.40;0.40;;;;;;;9.24;77.26;95373.41;5050718;28;20167;-67
2023/12/27 05:37:11;;;;;;;5.10;4.23;;;;;;;9.39;77.52;95399.59;5050811;28;20195;-68
2023/12/27 05:39:37;;;;;;;0.40;0.40;;;;;;;9.19;78.03;95393.34;5050852;28;20875;-68
2023/12/27 05:42:02;;;;;;;0.40;0.40;;;;;;;9.30;77.81;95395.47;5050840;28;20171;-68
2023/12/27 05:44:28;;;;;;;0.40;0.40;;;;;;;9.32;77.44;95409.25;5049946;28;20223;-68
2023/12/27 05:46:53;;;;;;;0.40;0.40;;;;;;;9.20;77.51;95406.31;5050213;28;20262;-67
2023/12/27 05:49:19;;;;;;;0.40;0.40;;;;;;;9.08;78.06;95413.06;5050169;28;20182;-67
2023/12/27 05:51:44;;;;;;;0.40;0.40;;;;;;;9.16;77.61;95427.88;5050155;28;20685;-67
2023/12/27 05:54:10;;;;;;;0.40;0.40;;;;;;;9.07;77.97;95432.47;5049914;28;20175;-67
2023/12/27 05:56:35;;;;;;;0.40;0.40;;;;;;;9.02;77.96;95433.00;5049540;28;20175;-67
2023/12/27 05:59:01;;;;;;;0.40;0.40;;;;;;;9.01;78.80;95434.00;5050045;28;20261;-68
2023/12/27 06:01:27;;;;;;;0.50;0.50;;;;;;;8.98;79.01;95436.19;5049963;28;20228;-68
2023/12/27 06:03:52;;;;;;;0.50;0.50;;;;;;;9.00;78.43;95444.69;5049802;28;20199;-68
2023/12/27 06:06:17;;;;;;;0.50;0.50;;;;;;;8.86;78.44;95425.34;5049794;28;20177;-68
2023/12/27 06:08:43;;;;;;;0.63;0.63;;;;;;;8.96;78.37;95448.69;5049741;28;20178;-68
2023/12/27 06:11:12;;;;;;;0.40;0.40;;;;;;;8.87;79.11;95450.63;5049611;28;20170;-68
2023/12/27 06:13:39;;;;;;;0.40;0.40;;;;;;;8.90;79.73;95457.31;5049598;28;20175;-68
2023/12/27 06:16:05;;;;;;;0.50;0.50;;;;;;;8.85;79.37;95451.78;5049883;28;20537;-68
2023/12/27 06:18:30;;;;;;;2.03;1.93;;;;;;;8.99;79.36;95469.34;5049575;28;20193;-68
2023/12/27 06:20:56;;;;;;;2.27;2.17;;;;;;;9.06;79.10;95464.97;5049611;28;20174;-68
2023/12/27 06:23:21;;;;;;;0.50;0.50;;;;;;;8.98;78.73;95457.22;5049967;28;20282;-68
2023/12/27 06:25:47;;;;;;;0.40;0.40;;;;;;;8.95;79.17;95460.19;5047634;28;20210;-67
2023/12/27 06:28:12;;;;;;;0.50;0.50;;;;;;;8.99;79.00;95461.47;5049807;28;20171;-67
2023/12/27 06:30:38;;;;;;;0.63;0.63;;;;;;;8.92;78.84;95452.69;5049368;28;20185;-67
2023/12/27 06:33:03;;;;;;;0.47;0.47;;;;;;;8.85;80.00;95451.78;5046113;28;20522;-67
2023/12/27 06:35:29;;;;;;;5.03;4.83;;;;;;;8.84;80.42;95461.47;5049578;28;20179;-67
2023/12/27 06:37:54;;;;;;;0.50;0.50;;;;;;;8.90;79.31;95455.50;5048996;28;20186;-68
2023/12/27 06:40:19;;;;;;;0.50;0.50;;;;;;;8.95;79.17;95458.38;5049725;28;20175;-68
2023/12/27 06:42:45;;;;;;;0.50;0.50;;;;;;;9.09;79.64;95465.38;5048366;28;20213;-67
2023/12/27 06:45:10;;;;;;;0.50;0.50;;;;;;;9.27;79.04;95459.72;5049072;28;20195;-68
2023/12/27 06:47:36;;;;;;;0.50;0.50;;;;;;;9.95;78.75;95468.75;5049432;28;20656;-68
2023/12/27 06:50:03;;;;;;;0.40;0.40;;;;;;;10.96;75.32;95478.66;5049069;28;20171;-67
2023/12/27 06:52:29;;;;;;;0.43;0.43;;;;;;;11.66;71.57;95482.66;5049198;28;20198;-68
2023/12/27 06:54:55;;;;;;;0.50;0.50;;;;;;;12.04;69.24;95484.72;5049190;28;20178;-68
2023/12/27 06:57:20;;;;;;;0.50;0.50;;;;;;;12.63;67.42;95497.00;5049484;28;20171;-68
2023/12/27 06:59:46;;;;;;;0.50;0.50;;;;;;;13.34;65.01;95507.53;5048739;28;20175;-67
2023/12/27 07:02:13;;;;;;;2.00;1.90;;;;;;;14.16;62.04;95520.63;5049128;28;20182;-68
2023/12/27 07:04:38;;;;;;;0.70;0.70;;;;;;;14.57;59.15;95496.25;5048963;28;20191;-68
2023/12/27 07:07:04;;;;;;;4.87;4.53;;;;;;;15.31;56.29;95523.53;5051736;28;20261;-68
2023/12/27 07:09:29;;;;;;;3.85;1.20;;;;;;;15.64;54.82;95501.91;5053342;28;20168;-66
2023/12/27 07:11:55;;;;;;;1.40;1.40;;;;;;;15.62;53.97;95535.81;5053003;28;20175;-66
2023/12/27 07:14:20;;;;;;;0.60;0.60;;;;;;;15.99;53.01;95547.97;5052928;28;20225;-66
2023/12/27 07:16:46;;;;;;;11.75;9.43;;;;;;;16.29;51.91;95558.53;5052904;28;20179;-65
2023/12/27 07:19:11;;;;;;;5.82;5.47;;;;;;;16.14;52.08;95558.97;5052979;28;20171;-65
2023/12/27 07:21:37;;;;;;;0.63;0.63;;;;;;;15.68;53.14;95562.28;5052925;28;20258;-66
2023/12/27 07:24:03;;;;;;;2.65;2.55;;;;;;;16.07;51.98;95560.09;5052496;28;20206;-66
2023/12/27 07:26:28;;;;;;;0.85;0.85;;;;;;;16.10;52.01;95557.78;5049791;28;20183;-66
2023/12/27 07:28:53;;;;;;;1.60;1.60;;;;;;;16.60;50.83;95576.03;5035081;28;20190;-66
2023/12/27 07:31:19;;;;;;;1.58;1.48;;;;;;;16.96;49.37;95583.78;5035093;28;20175;-66
2023/12/27 07:33:45;;;;;;;0.60;0.60;;;;;;;17.65;47.97;95581.25;5050687;28;20214;-65
2023/12/27 07:36:10;;;;;;;0.68;0.68;;;;;;;18.13;45.38;95570.16;5052396;28;20213;-66
2023/12/27 07:38:36;;;;;;;0.57;0.57;;;;;;;18.91;44.92;95582.66;5052754;28;20249;-65
2023/12/27 07:41:01;;;;;;;0.60;0.60;;;;;;;19.84;42.83;95556.88;5052293;28;20182;-66
2023/12/27 07:43:26;;;;;;;0.70;0.70;;;;;;;21.19;39.22;95569.00;5052334;28;20229;-66
2023/12/27 07:45:52;;;;;;;0.60;0.60;;;;;;;21.58;38.19;95547.22;5052134;28;20183;-66
2023/12/27 07:48:18;;;;;;;3.05;2.67;;;;;;;22.49;36.45;95560.84;5052095;28;20167;-66
2023/12/27 07:50:43;;;;;;;0.60;0.60;;;;;;;23.35;34.07;95552.72;5052698;28;20175;-66
2023/12/27 07:53:09;;;;;;;0.40;0.40;;;;;;;24.26;32.84;95567.66;5052539;28;20277;-67
2023/12/27 07:55:34;;;;;;;1.85;1.75;;;;;;;24.35;32.51;95569.50;5052660;28;20611;-67
2023/12/27 07:58:00;;;;;;;1.08;1.08;;;;;;;24.75;32.19;95592.59;5052502;28;20175;-67
2023/12/27 08:00:26;;;;;;;0.50;0.50;;;;;;;25.49;31.16;95594.09;5050461;28;20182;-67
2023/12/27 08:02:53;;;;;;;0.60;0.60;;;;;;;25.46;30.40;95577.69;5034003;28;20237;-67
2023/12/27 08:05:18;;;;;;;0.52;0.52;;;;;;;26.73;28.36;95582.22;5051811;28;20210;-67
2023/12/27 08:07:44;;;;;;;0.40;0.40;;;;;;;27.80;27.38;95583.88;5034077;28;20178;-67
2023/12/27 08:10:09;;;;;;;0.52;0.52;;;;;;;28.05;26.56;95591.47;5051838;28;20175;-67
2023/12/27 08:12:35;;;;;;;1.35;0.82;;;;;;;27.46;27.36;95596.97;5052147;28;20190;-67
2023/12/27 08:15:00;;;;;;;0.55;0.55;;;;;;;27.25;27.33;95599.22;5051385;28;20947;-67
2023/12/27 08:17:26;;;;;;;0.60;0.60;;;;;;;26.47;27.95;95595.31;5051229;28;20171;-67
2023/12/27 08:19:53;;;;;;;0.90;0.90;;;;;;;26.11;28.96;95583.41;5051236;28;20182;-67
2023/12/27 08:22:20;;;;;;;0.90;0.90;;;;;;;26.28;28.68;95591.84;5051636;28;20610;-67
2023/12/27 08:24:46;;;;;;;0.40;0.40;;;;;;;25.81;29.22;95601.59;5052163;28;20222;-66
2023/12/27 08:27:11;;;;;;;8.38;5.18;;;;;;;26.45;28.72;95600.22;5052176;28;20198;-66
2023/12/27 08:29:36;;;;;;;0.40;0.40;;;;;;;25.67;29.26;95608.78;5027595;28;20241;-66
2023/12/27 08:32:02;;;;;;;1.05;0.77;;;;;;;25.19;30.17;95611.38;5047322;28;20175;-66
2023/12/27 08:34:29;;;;;;;0.40;0.40;;;;;;;24.37;31.15;95606.91;5047075;28;20702;-66
2023/12/27 08:36:55;;;;;;;1.08;1.08;;;;;;;23.98;32.44;95614.88;5048047;28;20175;-66
2023/12/27 08:39:20;;;;;;;0.55;0.55;;;;;;;23.43;33.33;95613.19;5047897;28;20182;-65
2023/12/27 08:41:46;;;;;;;0.60;0.60;;;;;;;23.14;34.15;95618.31;5047416;28;20176;-65
2023/12/27 08:44:12;;;;;;;0.40;0.40;;;;;;;22.40;35.41;95605.41;5050441;28;20240;-67
2023/12/27 08:46:39;;;;;;;0.40;0.40;;;;;;;21.99;36.00;95626.75;5051424;28;20175;-67
2023/12/27 08:49:04;;;;;;;0.40;0.40;;;;;;;21.37;37.14;95634.72;5033218;28;20246;-66
2023/12/27 08:51:30;;;;;;;1.85;0.88;;;;;;;21.24;37.88;95632.53;5051422;28;20175;-66
2023/12/27 12:10:42;;;;;;;0.40;0.40;;;;;;;14.88;53.17;95561.56;5006852;28;20825;-66
2023/12/27 12:13:09;;;;;;;2.73;2.63;;;;;;;14.90;53.18;95558.69;5012802;28;20192;-66
2023/12/27 12:15:35;;;;;;;0.53;0.53;;;;;;;14.89;53.16;95552.56;5012910;28;20181;-66
2023/12/27 12:18:01;;;;;;;0.40;0.40;;;;;;;14.95;52.68;95551.72;5012337;28;20318;-66
2023/12/27 12:20:27;;;;;;;0.40;0.40;;;;;;;14.75;53.02;95548.44;5012710;28;20208;-66
2023/12/27 12:22:54;;;;;;;0.67;0.67;;;;;;;14.85;53.15;95564.66;5012660;28;20183;-66
2023/12/27 12:25:25;;;;;;;0.50;0.50;;;;;;;14.86;54.04;95576.91;5012533;28;20227;-66
2023/12/27 12:27:51;;;;;;;0.40;0.40;;;;;;;14.87;53.64;95569.75;5012625;28;20212;-66
2023/12/27 12:30:16;;;;;;;0.47;0.47;;;;;;;15.04;53.45;95581.41;5012336;28;20223;-66
2023/12/27 12:32:42;;;;;;;1.13;1.13;;;;;;;15.06;52.86;95577.47;5012120;28;20184;-67
2023/12/27 12:35:10;;;;;;;0.60;0.60;;;;;;;15.11;52.53;95576.84;5012131;28;20600;-66
2023/12/27 12:37:42;;;;;;;0.40;0.40;;;;;;;15.07;52.60;95576.44;5012047;28;20207;-66
2023/12/27 12:40:08;;;;;;;1.60;1.60;;;;;;;15.14;52.71;95578.22;5011999;28;20255;-66
2023/12/27 12:42:34;;;;;;;0.50;0.50;;;;;;;15.08;52.83;95579.91;5004233;28;20176;-66
2023/12/27 12:45:02;;;;;;;0.50;0.50;;;;;;;15.08;52.81;95588.69;5011938;28;20651;-66
2023/12/27 12:47:28;;;;;;;0.90;0.90;;;;;;;15.10;52.88;95583.16;5011734;28;20177;-66
2023/12/27 12:49:54;;;;;;;0.87;0.87;;;;;;;15.07;53.43;95584.41;5011972;28;20238;-66
2023/12/27 12:52:19;;;;;;;0.50;0.50;;;;;;;15.07;53.05;95591.56;5011791;28;21568;-66
2023/12/27 12:54:48;;;;;;;0.40;0.40;;;;;;;15.08;52.87;95591.34;5011597;28;20183;-66
2023/12/27 12:57:13;;;;;;;0.40;0.40;;;;;;;14.93;53.09;95577.63;5011708;28;20212;-66
2023/12/27 12:59:40;;;;;;;1.70;1.48;;;;;;;14.86;53.65;95599.94;5011611;28;20682;-66
2023/12/27 13:02:06;;;;;;;0.50;0.50;;;;;;;14.83;53.97;95600.38;5011968;28;20275;-66
2023/12/27 13:04:32;;;;;;;4.47;2.40;;;;;;;14.87;53.90;95597.06;5011516;28;20287;-66
2023/12/27 13:07:01;;;;;;;0.40;0.40;;;;;;;14.85;53.63;95593.00;5006565;28;20196;-66
2023/12/27 13:09:27;;;;;;;0.40;0.40;;;;;;;14.88;52.72;95588.06;5009692;28;20747;-66
2023/12/27 13:11:53;;;;;;;1.50;1.37;;;;;;;14.75;52.54;95595.34;5010207;28;20247;-67
2023/12/27 13:14:20;;;;;;;0.40;0.40;;;;;;;14.55;53.50;95587.56;4993518;28;20639;-67
2023/12/27 13:16:45;;;;;;;0.50;0.50;;;;;;;14.57;53.17;95591.63;5010527;28;20196;-67
2023/12/27 13:19:11;;;;;;;0.60;0.60;;;;;;;14.43;53.58;95590.13;5010561;28;20580;-67
2023/12/27 13:21:36;;;;;;;0.40;0.40;;;;;;;14.42;53.87;95591.16;5010973;28;20238;-66
2023/12/27 13:24:02;;;;;;;0.40;0.40;;;;;;;14.43;53.88;95584.03;5011220;28;20798;-67
2023/12/27 13:26:28;;;;;;;0.50;0.50;;;;;;;14.33;54.57;95587.13;5007654;28;20187;-66
2023/12/27 13:28:53;;;;;;;0.40;0.40;;;;;;;14.43;54.52;95594.63;4985775;28;20173;-66
2023/12/27 13:31:19;;;;;;;0.50;0.50;;;;;;;14.33;54.50;95569.38;4991710;28;20252;-66
2023/12/27 13:33:47;;;;;;;0.70;0.70;;;;;;;14.48;55.32;95592.13;4974495;28;20291;-66
2023/12/27 13:36:12;;;;;;;0.40;0.40;;;;;;;14.41;55.47;95591.38;4991722;28;20445;-66
2023/12/27 13:38:37;;;;;;;0.40;0.40;;;;;;;14.51;56.46;95594.34;4990761;28;20523;-66
2023/12/27 13:41:03;;;;;;;0.40;0.40;;;;;;;14.44;55.44;95598.91;4990679;28;20253;-67
2023/12/27 13:43:29;;;;;;;0.40;0.40;;;;;;;14.42;55.35;95598.28;4991215;28;20205;-67
2023/12/27 13:45:54;;;;;;;0.50;0.50;;;;;;;14.44;53.89;95598.91;4991439;28;20565;-66
2023/12/27 13:48:20;;;;;;;0.40;0.40;;;;;;;14.34;54.35;95602.81;5008998;28;20204;-66
2023/12/27 13:50:45;;;;;;;0.50;0.50;;;;;;;14.33;53.82;95605.66;5010955;28;20555;-66
2023/12/27 13:53:11;;;;;;;0.50;0.50;;;;;;;14.19;53.94;95599.63;5010924;28;20184;-66
2023/12/27 13:55:36;;;;;;;0.47;0.47;;;;;;;14.12;54.54;95590.13;4993436;28;20173;-66
2023/12/27 13:58:02;;;;;;;1.00;1.00;;;;;;;14.16;54.49;95607.22;5011100;28;20230;-66
2023/12/27 14:00:27;;;;;;;0.40;0.40;;;;;;;14.21;54.54;95604.72;5010813;28;20670;-66
2023/12/27 14:02:53;;;;;;;0.40;0.40;;;;;;;14.26;54.31;95604.91;5010858;28;20654;-66
2023/12/27 14:05:19;;;;;;;0.40;0.40;;;;;;;14.23;54.82;95607.97;4993312;28;20632;-66
2023/12/27 14:07:45;;;;;;;0.40;0.40;;;;;;;14.09;55.03;95604.63;5010249;28;20188;-66
2023/12/27 14:10:13;;;;;;;0.40;0.40;;;;;;;14.05;54.96;95606.06;5010517;28;20208;-67
2023/12/27 14:12:42;;;;;;;0.43;0.43;;;;;;;14.08;55.13;95604.81;5010694;28;20187;-66
2023/12/27 14:15:12;;;;;;;0.40;0.40;;;;;;;14.18;55.19;95602.50;5010067;28;20658;-66
2023/12/27 14:17:41;;;;;;;0.40;0.40;;;;;;;14.00;55.04;95586.53;5010165;28;20176;-66
2023/12/27 14:20:10;;;;;;;0.40;0.40;;;;;;;14.09;54.65;95609.09;5010442;28;20175;-66
2023/12/27 14:22:36;;;;;;;0.40;0.40;;;;;;;13.90;55.19;95587.81;5010583;28;20172;-67
2023/12/27 14:25:03;;;;;;;0.60;0.60;;;;;;;13.89;55.84;95601.25;5009941;28;20250;-66
2023/12/27 14:27:29;;;;;;;0.40;0.40;;;;;;;13.52;55.80;95550.78;5010577;28;20240;-66
2023/12/27 14:29:54;;;;;;;0.40;0.40;;;;;;;13.75;55.90;95597.88;5010191;28;20207;-66
2023/12/27 14:32:21;;;;;;;0.40;0.40;;;;;;;13.76;55.88;95614.56;4992731;28;20192;-66
2023/12/27 14:34:46;;;;;;;0.40;0.40;;;;;;;13.63;56.44;95610.16;5010547;28;20160;-66
2023/12/27 14:37:12;;;;;;;0.40;0.40;;;;;;;13.57;56.56;95616.31;5009952;28;20187;-66
2023/12/27 14:39:38;;;;;;;0.40;0.40;;;;;;;13.37;58.24;95591.75;5010551;28;20180;-66
2023/12/27 14:42:04;;;;;;;0.40;0.40;;;;;;;13.46;57.29;95619.59;5010106;28;20194;-66
2023/12/27 14:44:29;;;;;;;0.40;0.40;;;;;;;13.44;57.08;95618.97;5010458;28;20220;-66
2023/12/27 14:46:55;;;;;;;0.50;0.50;;;;;;;13.42;57.02;95623.66;5009647;28;20173;-67
2023/12/27 14:49:20;;;;;;;0.40;0.40;;;;;;;13.44;57.16;95627.72;5005617;28;21088;-67